map of KUT home
KUT - Airport
Location
City:  Kutaisi, Imereti, Georgia
Name:King David the Builder Kutaisi International Airport
Old (Alt.):Kopitnari Airport
ICAO:UGKO
IATA:KUT

Details
Type:Airport (Aerodrome, Airfield)
Use:Public/Civil, International (customs port of entry)
Latitude:4210'37"N (42.176825)
Longitude:4228'58"E (42.482714)
Elevation:223 ft (68 m)
Variation:6.81E (WMM2015 magnetic declination)
0.08 annual change
Runways:1
Longest:8202 × 144 ft (2500 × 44 m), paved

Time
Time Zone:UTC+3 (DST+4)

Weather
METAR:UGKO 210130Z 01005KT 8000 SCT017CB OVC039 12/11 Q1018 NOSIG

Related Locations
Nearby:
Farthest:GMR: 11106 mi / 17873 km
Mangareva [Totegegie], Gambier Islands, PF

Find:

   beyond  
but within

Other Information
Maps:
NOTAMs:
Links:
Sources:

  
  • flag of Georgia
  

Airport Diagram

Airport diagram for KUT

Airport diagram PDF

Sectional Chart

Flight Planning
at skyvector.com

Satellite Image

Google Maps Satellite view

 

Copyright © 2004-2018 Karl L. Swartz. All rights reserved.
The Great Circle Mapper name and logo are trademarks of the Great Circle Mapper.
All other trademarks mentioned herein belong to their respective owners.
Please see credits for attibutions and further copyright information.

  Follow gcmap on Facebook Follow gcmap on Twitter Follow gcmap on Google+ GCmap on LinkedIn

hCard Microformat

Geo Microformat